Weather at Muir Beach Military Airport (nonexistent / spam) [CLOSED]

Public forecast

Using degrees Fahrenheit for public forecast. Weather courtesy of forecast.io.

Closest aviation weather report (METAR) to Muir Beach Military Airport (nonexistent / spam)

Closest report is Marin County Airport - Gnoss Field, 16.8 nm (31.1 km) N. Retrieved 2021/05/19 02:35 UTC (13 minutes ago):

KDVO 190235Z AUTO 26019G29KT 10SM CLR 18/M01 A2998 RMK AO2

Closest aviation forecast (TAF) to Muir Beach Military Airport (nonexistent / spam)

Closest forecast is San Francisco International Airport, 18.0 nm (33.3 km) SE. Retrieved 2021-05-19 00:39 UTC (2 hours ago):

TAF KSFO 182337Z 1900/2006 28026G35KT P6SM SKC FM190400 28023G29KT P6SM SKC FM191200 28017G25KT P6SM FEW008 FEW250 FM191800 27027G34KT P6SM FEW250 FM192200 27030G40KT P6SM FEW250 FM200500 28016G25KT P6SM FEW250 WS018/30040KT